Time;durP1;ratioP1;P1;durP2;ratioP2;P2;SDS_P1;SDS_P2;PMS_P1;PMS_P2;Temp;Humidity;BMP_temperature;BMP_pressure;BME280_temperature;BME280_humidity;BME280_pressure;Samples;Min_cycle;Max_cycle;Signal;HPM_P1;HPM_P2
2021/01/20 00:03:01;;;;;;;;;21.40;20.00;;;;;9.61;46.41;98133.63;6183770;28;127168;-60
2021/01/20 00:06:03;;;;;;;;;20.00;18.00;;;;;9.46;46.37;98116.06;6189088;28;126704;-61
2021/01/20 00:09:05;;;;;;;;;18.00;16.00;;;;;9.64;46.55;98154.69;6207187;28;125490;-60
2021/01/20 00:12:07;;;;;;;;;19.80;17.80;;;;;9.52;46.89;98158.19;6203137;28;127040;-61
2021/01/20 00:15:13;;;;;;;;;19.00;17.75;;;;;9.44;47.16;98155.00;6207598;28;124689;-61
2021/01/20 00:18:14;;;;;;;;;17.00;16.00;;;;;9.47;47.18;98160.78;6207602;28;126050;-61
2021/01/20 00:21:16;;;;;;;;;16.50;15.50;;;;;9.46;47.02;98164.50;6208379;28;127621;-61
2021/01/20 00:24:17;;;;;;;;;21.00;15.20;;;;;9.45;47.18;98154.78;6201252;28;127489;-60
2021/01/20 00:27:19;;;;;;;;;18.00;16.60;;;;;9.44;47.35;98160.41;6205201;28;126530;-61
2021/01/20 00:30:21;;;;;;;;;18.20;16.20;;;;;9.51;47.24;98166.50;6180803;28;126670;-61
2021/01/20 00:33:23;;;;;;;;;20.40;17.60;;;;;9.44;47.38;98152.31;6185803;28;126400;-60
2021/01/20 00:36:25;;;;;;;;;18.00;17.00;;;;;9.51;47.32;98158.44;6191171;28;124387;-61
2021/01/20 00:39:26;;;;;;;;;19.00;17.60;;;;;9.52;47.27;98152.81;6203252;28;126891;-61
2021/01/20 00:42:28;;;;;;;;;20.00;18.40;;;;;9.46;47.30;98145.69;6197455;28;127509;-60
2021/01/20 00:45:30;;;;;;;;;19.00;16.00;;;;;9.42;46.92;98124.84;6180601;28;126879;-61
2021/01/20 00:48:32;;;;;;;;;19.00;17.00;;;;;9.18;47.10;98098.97;6149127;28;124499;-61
2021/01/20 00:51:33;;;;;;;;;17.00;16.50;;;;;9.50;47.36;98152.22;6166059;28;125275;-61
2021/01/20 00:54:35;;;;;;;;;14.75;14.75;;;;;9.50;47.31;98152.22;6183165;28;127764;-61
2021/01/20 00:57:36;;;;;;;;;18.00;17.00;;;;;9.54;47.09;98160.63;6208211;28;127547;-61
2021/01/20 01:00:38;;;;;;;;;19.50;18.25;;;;;9.57;47.07;98150.25;6188865;28;126462;-61
2021/01/20 01:03:39;;;;;;;;;17.60;16.00;;;;;9.54;47.15;98155.25;6169457;28;125419;-61
2021/01/20 01:06:41;;;;;;;;;16.00;16.00;;;;;9.51;47.20;98153.03;6182469;28;125243;-61
2021/01/20 01:09:42;;;;;;;;;16.60;16.00;;;;;9.19;47.10;98108.69;6187579;28;128451;-61
2021/01/20 01:13:01;;;;;;;;;17.60;17.00;;;;;9.49;47.11;98152.44;6164804;28;126459;-61
2021/01/20 01:16:05;;;;;;;;;14.20;13.80;;;;;9.49;47.05;98155.13;6167123;28;126271;-61
2021/01/20 01:19:07;;;;;;;;;17.00;16.00;;;;;9.46;47.03;98147.53;6180380;28;126025;-61
2021/01/20 01:22:09;;;;;;;;;18.00;16.50;;;;;9.54;46.77;98149.88;6169177;28;126333;-61
2021/01/20 01:25:14;;;;;;;;;19.50;17.00;;;;;9.48;46.66;98151.63;6184301;28;125922;-61
2021/01/20 01:28:21;;;;;;;;;18.40;16.60;;;;;9.49;46.92;98139.00;6177558;28;124421;-61
2021/01/20 01:31:38;;;;;;;;;17.80;16.00;;;;;9.50;46.78;98144.16;6184555;28;126268;-61
2021/01/20 01:34:43;;;;;;;;;16.50;15.25;;;;;9.26;46.86;98098.63;6210376;28;126547;-61
2021/01/20 01:37:45;;;;;;;;;21.00;18.00;;;;;9.49;46.96;98137.13;6210406;28;124822;-61
2021/01/20 01:41:07;;;;;;;;;19.00;15.40;;;;;9.43;47.00;98139.94;6192387;28;125995;-60
2021/01/20 01:44:34;;;;;;;;;18.60;17.60;;;;;9.17;47.24;98108.09;6185100;28;127820;-60
2021/01/20 01:47:35;;;;;;;;;15.00;14.00;;;;;9.38;47.29;98148.69;6150136;28;125390;-60
2021/01/20 01:50:39;;;;;;;;;17.50;16.00;;;;;9.36;47.32;98153.50;6189802;28;126788;-60
2021/01/20 01:53:40;;;;;;;;;19.00;16.40;;;;;9.44;47.06;98146.94;6186644;28;125122;-60
2021/01/20 01:56:49;;;;;;;;;17.67;16.00;;;;;9.48;47.19;98138.16;6178024;28;126863;-60
2021/01/20 01:59:55;;;;;;;;;15.00;14.00;;;;;9.52;46.85;98142.06;6207120;28;127444;-59
2021/01/20 02:03:15;;;;;;;;;16.00;16.00;;;;;9.48;46.98;98138.16;6209016;28;124904;-61
2021/01/20 02:06:19;;;;;;;;;16.20;15.80;;;;;9.52;46.67;98136.69;6180577;28;125069;-60
2021/01/20 02:09:27;;;;;;;;;18.00;15.00;;;;;9.53;46.73;98146.38;6206318;28;126165;-60
2021/01/20 02:12:52;;;;;;;;;17.40;14.00;;;;;9.57;46.51;98138.66;6185245;28;126572;-60
2021/01/20 02:16:15;;;;;;;;;15.40;14.40;;;;;9.60;46.35;98142.75;6176476;28;124715;-60
2021/01/20 02:19:25;;;;;;;;;16.60;15.60;;;;;9.57;46.06;98147.56;6179034;28;124907;-60
2021/01/20 02:22:32;;;;;;;;;16.80;15.80;;;;;9.46;46.09;98129.53;6174760;28;125819;-60
2021/01/20 02:26:06;;;;;;;;;15.40;14.40;;;;;9.57;46.04;98147.56;6176078;28;124974;-60
2021/01/20 02:29:25;;;;;;;;;15.00;14.00;;;;;9.61;45.92;98144.41;6185742;28;126224;-60
2021/01/20 02:32:41;;;;;;;;;15.00;14.00;;;;;9.55;45.88;98136.19;6173274;28;127035;-60
2021/01/20 02:35:44;;;;;;;;;15.00;14.40;;;;;9.55;45.90;98138.06;6183731;28;125691;-61
2021/01/20 02:38:48;;;;;;;;;14.00;14.00;;;;;9.66;45.72;98152.59;6185717;28;123818;-60
2021/01/20 02:41:49;;;;;;;;;15.40;13.60;;;;;9.64;45.77;98154.69;6184634;28;124687;-60
2021/01/20 02:45:09;;;;;;;;;13.40;12.40;;;;;9.61;45.83;98152.47;6152293;28;125701;-61
2021/01/20 02:48:19;;;;;;;;;12.00;12.00;;;;;9.41;45.81;98120.50;6183611;28;126908;-60
2021/01/20 02:51:40;;;;;;;;;12.50;12.00;;;;;9.67;45.54;98155.06;6209563;28;127339;-61
2021/01/20 02:55:03;;;;;;;;;11.00;10.60;;;;;9.66;45.68;98152.59;6209249;28;127306;-61
2021/01/20 02:58:31;;;;;;;;;13.00;12.75;;;;;9.70;45.44;98145.69;6200736;28;126937;-60
2021/01/20 03:01:55;;;;;;;;;12.00;11.00;;;;;9.69;45.40;98147.56;6186965;28;125924;-60
2021/01/20 03:04:59;;;;;;;;;10.00;10.00;;;;;9.56;45.69;98148.59;6186175;28;124882;-60
2021/01/20 03:08:01;;;;;;;;;10.50;10.00;;;;;9.67;45.53;98146.16;6185940;28;126102;-60
2021/01/20 03:11:05;;;;;;;;;11.00;10.00;;;;;9.34;45.53;98088.34;6194260;28;126389;-60
2021/01/20 03:14:07;;;;;;;;;9.00;8.00;;;;;9.70;45.47;98151.88;6191803;28;125175;-60
2021/01/20 03:17:08;;;;;;;;;10.60;10.00;;;;;9.82;45.50;98151.91;6204077;28;125964;-61
2021/01/20 03:20:10;;;;;;;;;9.00;8.00;;;;;9.82;45.61;98157.28;6197677;28;125144;-61
2021/01/20 03:23:11;;;;;;;;;8.00;8.00;;;;;9.86;45.46;98155.75;6208230;28;127428;-60
2021/01/20 03:26:13;;;;;;;;;8.00;7.40;;;;;9.82;45.73;98152.69;6185437;28;128383;-61
2021/01/20 03:29:14;;;;;;;;;8.00;8.00;;;;;9.85;45.67;98159.50;6185869;28;125999;-60
2021/01/20 03:32:15;;;;;;;;;7.20;7.20;;;;;9.71;46.04;98134.69;6191262;28;125296;-61
2021/01/20 03:35:17;;;;;;;;;7.00;7.00;;;;;9.57;45.92;98112.59;6204448;28;126709;-60
2021/01/20 03:38:18;;;;;;;;;8.00;8.00;;;;;9.90;45.86;98148.84;6197528;28;125197;-60
2021/01/20 03:41:20;;;;;;;;;9.00;9.00;;;;;10.00;45.99;98149.06;6207059;28;125365;-61
2021/01/20 03:44:22;;;;;;;;;9.20;8.00;;;;;10.00;46.13;98157.16;6209383;28;125352;-61
2021/01/20 03:47:23;;;;;;;;;9.00;7.60;;;;;9.97;45.99;98144.13;6209612;28;126525;-61
2021/01/20 03:50:25;;;;;;;;;8.60;8.00;;;;;10.06;45.82;98158.91;6190201;28;127692;-61
2021/01/20 03:53:26;;;;;;;;;10.00;8.00;;;;;10.10;45.84;98165.44;6183560;28;125489;-61
2021/01/20 03:56:28;;;;;;;;;7.00;7.00;;;;;10.15;45.82;98159.34;6197984;28;125582;-61
2021/01/20 03:59:30;;;;;;;;;10.40;9.40;;;;;10.17;45.73;98155.38;6202628;28;126976;-61
2021/01/20 04:02:32;;;;;;;;;10.00;8.00;;;;;10.19;45.79;98160.53;6188472;28;124329;-61
2021/01/20 04:05:44;;;;;;;;;7.60;7.00;;;;;10.11;45.89;98164.41;6189806;28;124588;-61
2021/01/20 04:08:46;;;;;;;;;7.00;7.00;;;;;10.07;46.13;98160.50;6185347;28;125359;-61
2021/01/20 04:11:48;;;;;;;;;8.00;8.00;;;;;10.25;45.65;98168.50;6184866;28;128281;-61
2021/01/20 04:14:49;;;;;;;;;8.33;8.00;;;;;10.23;45.61;98159.00;6183592;28;127456;-60
2021/01/20 04:17:50;;;;;;;;;7.00;6.60;;;;;10.27;45.61;98169.06;6207135;28;127629;-60
2021/01/20 04:20:52;;;;;;;;;9.00;8.00;;;;;10.21;45.49;98159.28;6191349;28;127606;-60
2021/01/20 04:23:54;;;;;;;;;9.00;9.00;;;;;10.22;45.56;98163.56;6191049;28;127118;-60
2021/01/20 04:26:55;;;;;;;;;9.00;8.00;;;;;10.33;45.61;98172.69;6193765;28;126150;-60
2021/01/20 04:29:56;;;;;;;;;8.00;7.40;;;;;10.36;45.50;98169.53;6207402;28;124112;-60
2021/01/20 04:32:58;;;;;;;;;9.00;7.00;;;;;10.34;45.45;98166.25;6206500;28;124065;-60
2021/01/20 04:35:59;;;;;;;;;8.60;7.60;;;;;9.98;45.59;98129.63;6195285;28;127661;-60
2021/01/20 04:39:02;;;;;;;;;7.00;6.00;;;;;10.29;45.55;98164.28;6207643;28;125321;-61
2021/01/20 04:42:05;;;;;;;;;8.00;7.00;;;;;9.96;45.62;98121.81;6181105;28;126949;-60
2021/01/20 04:45:07;;;;;;;;;9.00;8.80;;;;;10.19;45.54;98160.53;6187048;28;126300;-60
2021/01/20 04:48:09;;;;;;;;;8.00;8.00;;;;;10.11;45.47;98142.84;6185174;28;125374;-60
2021/01/20 04:51:11;;;;;;;;;7.50;7.00;;;;;10.32;45.72;98171.06;6234672;27;124732;-61
2021/01/20 04:54:15;;;;;;;;;9.40;8.00;;;;;10.29;45.45;98158.06;6201407;28;124367;-60
2021/01/20 04:57:17;;;;;;;;;6.00;6.00;;;;;10.22;45.38;98135.81;6187253;28;125834;-60
2021/01/20 05:00:18;;;;;;;;;7.00;6.40;;;;;10.39;45.51;98159.09;6187574;28;126624;-60
2021/01/20 05:03:20;;;;;;;;;7.33;7.33;;;;;10.33;45.40;98149.28;6170524;28;127567;-60
2021/01/20 05:06:22;;;;;;;;;8.00;8.00;;;;;10.20;45.33;98125.31;6196389;28;125035;-60
2021/01/20 05:09:23;;;;;;;;;7.80;7.00;;;;;10.40;45.40;98165.31;6211120;28;125562;-59
2021/01/20 05:12:39;;;;;;;;;8.40;8.00;;;;;10.51;45.24;98171.72;6211441;28;125777;-60
2021/01/20 05:15:41;;;;;;;;;8.00;7.20;;;;;10.50;45.24;98172.78;6193942;28;125785;-61
2021/01/20 05:18:48;;;;;;;;;9.00;8.00;;;;;10.50;45.29;98175.47;6209310;28;126021;-60
2021/01/20 05:22:07;;;;;;;;;10.00;9.50;;;;;10.55;45.42;98178.28;6207405;28;123568;-60
2021/01/20 05:25:09;;;;;;;;;8.00;8.00;;;;;10.52;45.52;98174.16;6209848;28;127311;-61
2021/01/20 05:28:25;;;;;;;;;8.00;8.00;;;;;10.49;45.53;98171.16;6204910;28;125333;-61
2021/01/20 05:31:26;;;;;;;;;11.00;9.60;;;;;10.55;45.61;98176.41;6199200;28;126422;-59
2021/01/20 05:34:37;;;;;;;;;8.00;8.00;;;;;10.60;45.57;98183.78;6167822;28;126796;-60
2021/01/20 05:37:46;;;;;;;;;9.00;8.00;;;;;10.66;45.42;98183.63;6199106;28;125966;-60
2021/01/20 05:40:48;;;;;;;;;8.40;7.40;;;;;10.69;45.48;98177.78;6194704;28;124736;-61
2021/01/20 05:43:51;;;;;;;;;9.50;9.00;;;;;10.63;45.51;98186.81;6210244;28;126391;-61
2021/01/20 05:46:53;;;;;;;;;7.00;7.00;;;;;10.69;45.35;98185.84;6211222;28;126196;-61
2021/01/20 05:50:08;;;;;;;;;10.00;8.00;;;;;10.63;45.63;98169.81;6190495;28;128464;-60
2021/01/20 05:53:12;;;;;;;;;8.25;8.25;;;;;10.72;45.48;98176.47;6185054;28;125845;-60
2021/01/20 05:56:15;;;;;;;;;10.00;9.00;;;;;10.77;45.58;98180.06;6176714;28;126084;-60
2021/01/20 05:59:24;;;;;;;;;10.00;8.00;;;;;10.72;45.63;98182.66;6206688;28;126885;-61
2021/01/20 06:02:26;;;;;;;;;9.80;8.00;;;;;10.77;45.71;98179.25;6198218;28;127396;-61
2021/01/20 06:05:28;;;;;;;;;8.00;8.00;;;;;10.65;45.48;98171.19;6202145;28;127388;-61
2021/01/20 06:08:34;;;;;;;;;10.00;9.00;;;;;10.86;45.40;98202.06;6201162;28;125378;-61
2021/01/20 06:11:36;;;;;;;;;10.80;10.00;;;;;10.84;45.45;98182.63;6210086;28;126067;-60
2021/01/20 06:14:38;;;;;;;;;10.60;10.00;;;;;10.90;45.43;98188.94;6200633;28;126839;-61
2021/01/20 06:17:43;;;;;;;;;7.50;7.50;;;;;10.88;45.48;98193.75;6206636;28;126173;-61
2021/01/20 06:20:47;;;;;;;;;8.00;8.00;;;;;10.96;45.43;98209.53;6191723;28;125989;-61
2021/01/20 06:23:54;;;;;;;;;9.50;8.50;;;;;10.77;45.56;98180.06;6175849;28;126173;-61
2021/01/20 06:27:05;;;;;;;;;7.00;7.00;;;;;11.01;45.29;98215.03;6209640;28;125359;-61
2021/01/20 06:30:13;;;;;;;;;9.00;8.00;;;;;11.05;45.31;98224.28;6187749;28;126254;-61
2021/01/20 06:33:16;;;;;;;;;9.50;8.50;;;;;11.07;45.22;98220.28;6199003;28;125486;-61
2021/01/20 06:36:35;;;;;;;;;10.00;9.60;;;;;11.01;45.10;98199.69;6183713;28;127179;-61
2021/01/20 06:39:36;;;;;;;;;8.50;8.50;;;;;11.17;45.09;98220.50;6183976;28;124704;-60
2021/01/20 06:42:38;;;;;;;;;11.00;9.40;;;;;11.23;44.96;98224.09;6184844;28;126843;-61
2021/01/20 06:45:40;;;;;;;;;8.00;8.00;;;;;10.93;44.68;98174.97;6177459;28;128561;-60
2021/01/20 06:48:53;;;;;;;;;12.00;9.60;;;;;11.29;44.84;98223.94;6208866;28;126768;-60
2021/01/20 06:52:15;;;;;;;;;10.50;10.00;;;;;11.15;45.26;98203.72;6189835;28;124743;-60
2021/01/20 06:55:41;;;;;;;;;9.00;9.00;;;;;11.20;44.69;98216.47;6185879;28;126214;-60
2021/01/20 06:58:42;;;;;;;;;9.00;9.00;;;;;11.18;44.93;98215.91;6197532;28;123392;-61
2021/01/20 07:02:10;;;;;;;;;10.00;9.00;;;;;11.25;44.69;98212.00;6188323;28;127132;-60
2021/01/20 07:05:39;;;;;;;;;10.60;10.00;;;;;11.48;44.50;98227.25;6209994;28;126045;-60
2021/01/20 07:08:51;;;;;;;;;11.50;11.00;;;;;11.47;44.58;98222.91;6209831;28;125937;-60
2021/01/20 07:11:56;;;;;;;;;10.00;8.00;;;;;11.48;44.50;98237.25;6178120;28;125573;-60
2021/01/20 07:15:04;;;;;;;;;11.00;11.00;;;;;11.47;44.61;98232.91;6185492;28;124889;-60
2021/01/20 07:18:07;;;;;;;;;11.00;10.00;;;;;11.41;44.56;98231.16;6199201;28;127727;-60
2021/01/20 07:21:09;;;;;;;;;10.00;9.00;;;;;11.53;44.71;98246.22;6185970;28;126395;-60
2021/01/20 07:24:13;;;;;;;;;11.60;10.00;;;;;11.51;44.76;98255.63;6205154;28;124648;-61
2021/01/20 07:27:15;;;;;;;;;12.00;11.00;;;;;11.44;44.82;98257.66;6185678;28;126473;-60
2021/01/20 07:30:16;;;;;;;;;12.80;10.40;;;;;11.48;44.83;98256.97;6189391;28;125285;-61
2021/01/20 07:33:21;;;;;;;;;11.00;9.60;;;;;11.38;44.77;98237.88;6207913;28;126882;-60
2021/01/20 07:36:24;;;;;;;;;12.50;11.00;;;;;11.60;44.64;98268.50;6205158;28;127994;-60
2021/01/20 07:39:26;;;;;;;;;13.00;11.00;;;;;11.68;44.61;98272.66;6204343;28;127765;-61
2021/01/20 07:42:40;;;;;;;;;12.00;10.00;;;;;11.61;44.37;98261.22;6191473;28;125292;-61
2021/01/20 07:45:42;;;;;;;;;14.00;13.00;;;;;11.86;44.23;98275.19;6198431;28;124723;-60
2021/01/20 07:48:43;;;;;;;;;11.80;10.80;;;;;11.82;44.08;98265.94;6193918;28;126714;-60
2021/01/20 07:51:59;;;;;;;;;14.00;13.40;;;;;11.80;44.02;98257.25;6207629;28;127554;-60
2021/01/20 07:55:01;;;;;;;;;16.00;15.60;;;;;12.08;43.75;98288.78;6206534;28;124733;-61
2021/01/20 07:58:02;;;;;;;;;12.00;11.00;;;;;11.89;43.60;98260.38;6188893;28;125379;-60
2021/01/20 08:01:04;;;;;;;;;13.00;12.00;;;;;12.17;43.54;98286.50;6206774;28;126758;-61
2021/01/20 08:04:20;;;;;;;;;16.20;15.20;;;;;12.21;43.59;98287.63;6189143;28;126088;-60
2021/01/20 08:07:23;;;;;;;;;14.60;14.00;;;;;12.25;43.40;98289.59;6204682;28;126373;-60
2021/01/20 08:10:24;;;;;;;;;16.00;15.00;;;;;12.12;43.48;98265.59;6189736;28;124111;-61
2021/01/20 08:13:29;;;;;;;;;15.50;14.50;;;;;12.30;43.13;98297.78;6206398;28;126660;-60
2021/01/20 08:16:34;;;;;;;;;16.60;15.40;;;;;12.27;42.95;98283.94;6179938;28;125494;-61
2021/01/20 08:19:36;;;;;;;;;19.80;18.20;;;;;12.50;43.14;98311.63;6199828;28;124974;-60
2021/01/20 08:22:48;;;;;;;;;19.00;16.75;;;;;12.32;43.18;98276.72;6188499;28;124075;-61
2021/01/20 08:25:49;;;;;;;;;22.40;20.00;;;;;12.40;42.67;98265.50;6187652;28;127053;-62
2021/01/20 08:29:11;;;;;;;;;20.00;19.00;;;;;12.69;42.59;98300.50;6204088;28;126774;-60
2021/01/20 08:32:12;;;;;;;;;21.25;20.25;;;;;12.70;42.75;98296.75;6202956;28;127221;-60
2021/01/20 08:35:34;;;;;;;;;22.00;21.00;;;;;12.46;42.90;98264.47;6203758;28;125028;-61
2021/01/20 08:38:35;;;;;;;;;23.40;22.00;;;;;12.81;42.77;98295.78;6202153;28;124708;-61
2021/01/20 08:41:37;;;;;;;;;22.60;20.60;;;;;12.94;42.48;98295.44;6185268;28;124679;-61
2021/01/20 08:44:39;;;;;;;;;22.80;20.80;;;;;13.01;42.08;98282.53;6203533;28;126603;-61
2021/01/20 08:47:51;;;;;;;;;26.67;23.67;;;;;13.28;41.80;98290.75;6190130;28;126145;-59
2021/01/20 08:50:56;;;;;;;;;20.50;18.75;;;;;13.39;41.84;98284.34;6210224;28;124722;-60
2021/01/20 08:54:10;;;;;;;;;17.00;16.00;;;;;13.31;41.46;98255.03;6189600;28;127287;-61
2021/01/20 08:57:16;;;;;;;;;20.00;17.60;;;;;13.45;41.15;98254.38;6202656;28;125937;-61
2021/01/20 09:00:18;;;;;;;;;18.00;16.50;;;;;13.94;41.20;98288.69;6203791;28;125984;-61
2021/01/20 09:03:22;;;;;;;;;16.60;15.00;;;;;14.04;40.79;98289.59;6205840;28;124395;-60
2021/01/20 09:06:25;;;;;;;;;15.33;14.33;;;;;14.19;40.66;98302.44;6203972;28;126243;-60
2021/01/20 09:09:26;;;;;;;;;14.60;12.60;;;;;14.63;39.73;98303.88;6202488;28;126876;-61
2021/01/20 09:12:28;;;;;;;;;15.00;12.00;;;;;15.09;38.76;98293.28;6199244;28;126614;-61
2021/01/20 09:15:34;;;;;;;;;11.00;10.60;;;;;15.53;38.11;98302.72;6206066;28;124588;-61
2021/01/20 09:18:36;;;;;;;;;11.20;10.00;;;;;16.18;36.82;98303.03;6202470;28;126544;-59
2021/01/20 09:21:38;;;;;;;;;11.00;9.00;;;;;16.96;35.63;98293.44;6205469;28;124914;-60
2021/01/20 09:24:39;;;;;;;;;8.20;7.20;;;;;17.29;34.70;98300.97;6202089;28;128145;-61
2021/01/20 09:27:41;;;;;;;;;10.40;8.40;;;;;17.40;34.61;98309.88;6200833;28;128271;-61
2021/01/20 09:30:43;;;;;;;;;9.00;9.00;;;;;17.17;34.67;98314.06;6205232;28;126434;-60
2021/01/20 09:33:44;;;;;;;;;8.00;7.40;;;;;17.11;34.79;98312.44;6202892;28;125401;-61
2021/01/20 09:36:46;;;;;;;;;8.80;8.00;;;;;17.99;33.52;98306.28;6204846;28;128440;-61
2021/01/20 09:39:48;;;;;;;;;10.00;9.00;;;;;18.18;32.77;98310.78;6202768;28;126055;-60
2021/01/20 09:42:50;;;;;;;;;11.75;10.00;;;;;17.97;33.13;98311.22;6209387;28;126564;-62
2021/01/20 09:45:52;;;;;;;;;9.20;9.20;;;;;17.48;33.69;98311.22;6206676;28;126754;-61
2021/01/20 09:48:53;;;;;;;;;11.00;10.00;;;;;17.22;34.04;98294.97;6209204;28;125437;-62
2021/01/20 09:51:55;;;;;;;;;10.00;9.20;;;;;17.28;34.22;98301.22;6205921;28;126988;-62
2021/01/20 09:55:04;;;;;;;;;10.00;9.00;;;;;17.17;34.24;98300.44;6183267;28;126220;-60
2021/01/20 09:58:06;;;;;;;;;10.00;9.20;;;;;17.43;34.17;98301.16;6205035;28;125854;-60
2021/01/20 10:01:07;;;;;;;;;11.00;11.00;;;;;17.41;33.90;98297.06;6209923;28;127209;-61
2021/01/20 10:04:09;;;;;;;;;10.75;10.25;;;;;17.34;33.92;98297.41;6188996;28;125071;-60
2021/01/20 10:07:12;;;;;;;;;11.00;10.00;;;;;17.14;34.01;98253.91;6187386;28;128432;-59
2021/01/20 10:10:15;;;;;;;;;9.00;9.00;;;;;16.94;34.25;98262.97;6209747;28;125460;-60
2021/01/20 10:13:19;;;;;;;;;9.00;8.00;;;;;16.51;34.55;98229.03;6204800;28;126288;-61
2021/01/20 10:16:21;;;;;;;;;8.40;7.00;;;;;16.78;34.81;98288.59;6206588;28;126434;-59
2021/01/20 10:19:22;;;;;;;;;8.60;8.00;;;;;16.69;34.90;98263.03;6212640;28;127039;-61
2021/01/20 10:22:24;;;;;;;;;12.00;9.00;;;;;16.55;35.11;98276.38;6211465;28;126076;-61
2021/01/20 10:25:32;;;;;;;;;9.40;8.40;;;;;16.30;35.28;98274.50;6207051;28;125159;-61
2021/01/20 10:28:34;;;;;;;;;8.00;8.00;;;;;16.16;35.68;98257.09;6194728;28;126513;-62
2021/01/20 10:31:37;;;;;;;;;10.00;10.00;;;;;15.97;36.04;98277.78;6189279;28;125295;-61
2021/01/20 10:34:39;;;;;;;;;10.00;9.00;;;;;15.51;36.49;98231.53;6186463;28;126683;-62
2021/01/20 10:37:40;;;;;;;;;7.00;5.40;;;;;15.65;36.50;98267.13;6208687;28;125286;-61
2021/01/20 10:40:42;;;;;;;;;8.00;7.60;;;;;15.45;36.97;98264.34;6200469;28;126741;-60
2021/01/20 10:43:43;;;;;;;;;7.00;7.00;;;;;15.17;37.03;98243.91;6202847;28;124487;-60
2021/01/20 10:46:45;;;;;;;;;7.00;7.00;;;;;15.14;37.52;98249.88;6204036;28;125497;-60
2021/01/20 10:49:47;;;;;;;;;6.00;5.00;;;;;14.77;37.33;98195.69;6209484;28;125455;-60
2021/01/20 10:52:48;;;;;;;;;6.60;6.00;;;;;14.99;37.55;98226.19;6170264;28;124536;-60
2021/01/20 10:55:50;;;;;;;;;7.00;6.75;;;;;15.07;37.53;98249.28;6201112;28;127083;-60
2021/01/20 10:58:51;;;;;;;;;7.00;7.00;;;;;15.03;37.31;98213.72;6179776;28;124232;-60
2021/01/20 11:01:52;;;;;;;;;8.00;6.00;;;;;15.22;37.22;98246.63;6189968;28;126628;-60
2021/01/20 11:04:54;;;;;;;;;6.80;6.80;;;;;15.41;36.97;98244.22;6208818;28;126609;-61
2021/01/20 11:07:55;;;;;;;;;9.40;7.40;;;;;15.81;36.23;98236.16;6205353;28;127608;-60
2021/01/20 11:10:57;;;;;;;;;8.20;7.00;;;;;15.83;35.87;98238.63;6190595;28;125373;-60
2021/01/20 11:13:58;;;;;;;;;8.00;8.00;;;;;15.72;35.98;98234.25;6203774;28;126977;-59
2021/01/20 11:17:00;;;;;;;;;8.00;8.00;;;;;15.69;36.18;98232.06;6179162;28;124638;-60
2021/01/20 11:20:01;;;;;;;;;6.40;6.00;;;;;15.65;36.09;98226.38;6175550;28;125754;-60
2021/01/20 11:23:03;;;;;;;;;6.33;6.00;;;;;15.65;36.20;98234.53;6177251;28;125190;-60
2021/01/20 11:26:07;;;;;;;;;7.25;7.00;;;;;15.56;36.34;98222.56;6171789;28;126437;-60
2021/01/20 11:29:10;;;;;;;;;9.00;8.00;;;;;15.54;36.34;98205.72;6208206;28;124511;-61
2021/01/20 11:32:11;;;;;;;;;9.40;9.20;;;;;15.64;36.25;98219.28;6204368;28;127457;-60
2021/01/20 11:35:13;;;;;;;;;6.60;6.00;;;;;15.59;36.36;98211.13;6182400;28;127082;-60
2021/01/20 11:38:15;;;;;;;;;6.25;6.25;;;;;15.66;36.19;98210.88;6189197;28;125943;-61
2021/01/20 11:41:16;;;;;;;;;7.60;7.00;;;;;15.68;36.04;98200.56;6207470;28;126037;-60
2021/01/20 11:44:17;;;;;;;;;9.00;9.00;;;;;15.49;36.15;98206.47;6204084;28;127311;-61
2021/01/20 11:47:19;;;;;;;;;6.60;5.60;;;;;15.56;36.24;98207.06;6192116;28;126546;-60
2021/01/20 11:50:22;;;;;;;;;8.00;7.00;;;;;15.65;36.13;98193.75;6184010;28;96655;-61
2021/01/20 11:53:23;;;;;;;;;8.00;7.00;;;;;15.81;36.00;98191.88;6199700;28;127431;-62
2021/01/20 11:56:26;;;;;;;;;7.00;6.00;;;;;15.90;35.66;98185.59;6181757;28;126444;-62
2021/01/20 11:59:27;;;;;;;;;7.20;7.00;;;;;16.08;35.45;98188.88;6200011;28;126566;-60
2021/01/20 12:02:29;;;;;;;;;9.40;8.60;;;;;16.08;35.30;98189.66;6193529;28;127336;-62
2021/01/20 12:05:30;;;;;;;;;7.00;5.00;;;;;16.19;35.14;98185.03;6182741;28;125208;-60
2021/01/20 12:08:33;;;;;;;;;6.00;6.00;;;;;16.35;34.87;98175.75;6206305;28;125649;-59
2021/01/20 12:11:34;;;;;;;;;6.00;6.00;;;;;16.50;34.67;98183.88;6206813;28;128119;-59
2021/01/20 12:14:37;;;;;;;;;7.60;6.60;;;;;16.56;34.55;98174.59;6197987;28;126440;-59
2021/01/20 12:17:38;;;;;;;;;6.00;6.00;;;;;16.58;34.34;98183.31;6191420;28;125050;-60
2021/01/20 12:20:40;;;;;;;;;7.80;7.00;;;;;16.74;34.28;98173.19;6199168;28;127592;-60
2021/01/20 12:23:42;;;;;;;;;5.40;4.00;;;;;16.91;34.02;98173.66;6165087;28;125355;-60
2021/01/20 12:26:43;;;;;;;;;5.40;5.00;;;;;17.48;33.50;98164.06;6193854;28;125507;-60
2021/01/20 12:29:45;;;;;;;;;7.00;6.00;;;;;18.16;32.36;98165.69;6201804;28;127160;-60
2021/01/20 12:32:46;;;;;;;;;6.00;6.00;;;;;18.90;31.02;98160.75;6207959;28;127883;-60
2021/01/20 12:35:48;;;;;;;;;9.00;7.50;;;;;19.77;30.59;98169.34;6205511;28;127663;-61
2021/01/20 12:38:49;;;;;;;;;8.80;7.40;;;;;20.07;29.88;98166.09;6181006;28;125166;-60
2021/01/20 12:41:51;;;;;;;;;8.00;7.00;;;;;20.06;29.49;98145.31;6204071;28;125654;-61
2021/01/20 12:44:53;;;;;;;;;5.80;5.80;;;;;20.42;29.22;98156.44;6204471;28;126743;-61
2021/01/20 12:47:54;;;;;;;;;5.40;5.40;;;;;21.15;28.28;98161.81;6195349;28;125278;-61
2021/01/20 12:50:56;;;;;;;;;6.00;6.00;;;;;21.59;27.79;98146.53;6206272;28;126568;-60
2021/01/20 12:54:03;;;;;;;;;6.00;6.00;;;;;21.80;27.28;98150.38;6208094;28;127540;-63
2021/01/20 12:57:04;;;;;;;;;6.00;5.00;;;;;21.61;26.59;98112.16;6196403;28;124955;-60
2021/01/20 13:00:06;;;;;;;;;5.00;5.00;;;;;21.80;26.80;98128.44;6183104;28;125290;-59
2021/01/20 13:03:08;;;;;;;;;7.00;6.00;;;;;21.97;26.62;98142.31;6188045;28;127159;-60
2021/01/20 13:06:10;;;;;;;;;8.00;7.80;;;;;22.09;26.53;98143.69;6189389;28;124745;-59
2021/01/20 13:09:11;;;;;;;;;11.00;8.40;;;;;22.12;26.24;98143.03;6189616;28;125156;-60
2021/01/20 13:12:13;;;;;;;;;6.00;5.60;;;;;22.09;26.18;98138.19;6191832;28;125237;-59
2021/01/20 13:15:15;;;;;;;;;6.75;5.75;;;;;22.11;26.49;98139.47;6194333;28;126199;-59
2021/01/20 13:18:20;;;;;;;;;6.00;5.40;;;;;21.83;26.37;98135.25;6211029;28;126708;-59
2021/01/20 13:21:22;;;;;;;;;5.20;4.20;;;;;21.83;26.40;98116.03;6211959;28;124508;-60
2021/01/20 13:24:25;;;;;;;;;7.00;6.00;;;;;21.83;26.31;98129.75;6203253;28;127038;-61
2021/01/20 13:27:26;;;;;;;;;5.00;5.00;;;;;21.53;26.67;98125.84;6193923;28;125372;-61
2021/01/20 13:30:28;;;;;;;;;4.80;4.80;;;;;21.45;26.97;98099.94;6170916;28;124369;-59
2021/01/20 13:33:29;;;;;;;;;5.00;4.00;;;;;21.18;26.97;98111.03;6211267;28;126648;-60
2021/01/20 13:36:32;;;;;;;;;3.00;3.00;;;;;21.04;26.91;98124.75;6212103;28;125278;-60
2021/01/20 13:39:33;;;;;;;;;3.60;3.60;;;;;20.95;27.02;98129.34;6211546;28;127737;-60
2021/01/20 13:42:34;;;;;;;;;4.20;3.80;;;;;20.77;27.72;98140.44;6211209;28;125480;-60
2021/01/20 13:45:36;;;;;;;;;4.00;4.00;;;;;20.51;28.11;98131.91;6193453;28;125316;-60
2021/01/20 13:48:37;;;;;;;;;4.60;4.60;;;;;20.16;28.27;98130.63;6193450;28;126629;-60
2021/01/20 13:51:39;;;;;;;;;5.00;4.00;;;;;19.73;28.92;98128.13;6205473;28;126888;-60
2021/01/20 13:54:43;;;;;;;;;6.00;5.00;;;;;19.39;29.12;98127.56;6193753;28;126275;-61
2021/01/20 13:57:44;;;;;;;;;7.40;7.40;;;;;19.10;29.61;98137.81;6211141;28;125479;-60
2021/01/20 14:00:45;;;;;;;;;5.60;5.60;;;;;18.79;30.26;98124.56;6211516;28;125791;-60
2021/01/20 14:03:47;;;;;;;;;4.20;4.00;;;;;18.47;30.31;98114.28;6211532;28;127730;-60
2021/01/20 14:06:48;;;;;;;;;5.60;5.00;;;;;18.56;30.63;98128.97;6193692;28;127463;-59
2021/01/20 14:09:50;;;;;;;;;5.00;5.00;;;;;18.30;31.04;98100.31;6191093;28;126673;-60
2021/01/20 14:12:51;;;;;;;;;7.00;6.50;;;;;18.30;30.68;98111.22;6209359;28;127389;-60